sensor_id;sensor_type;location;lat;lon;timestamp;P1;durP1;ratioP1;P2;durP2;ratioP2
20381;SDS011;10350;51.280;12.400;2023-06-05T00:01:54;0.22;;;0.22;;
20381;SDS011;10350;51.280;12.400;2023-06-05T00:04:20;0.70;;;0.70;;
20381;SDS011;10350;51.280;12.400;2023-06-05T00:06:48;0.82;;;0.50;;
20381;SDS011;10350;51.280;12.400;2023-06-05T00:09:15;0.65;;;0.40;;
20381;SDS011;10350;51.280;12.400;2023-06-05T00:11:41;0.90;;;0.47;;
20381;SDS011;10350;51.280;12.400;2023-06-05T00:14:07;1.98;;;0.50;;
20381;SDS011;10350;51.280;12.400;2023-06-05T00:16:34;0.73;;;0.68;;
20381;SDS011;10350;51.280;12.400;2023-06-05T00:19:00;0.57;;;0.40;;
20381;SDS011;10350;51.280;12.400;2023-06-05T00:21:26;0.63;;;0.50;;
20381;SDS011;10350;51.280;12.400;2023-06-05T00:23:53;1.80;;;0.60;;
20381;SDS011;10350;51.280;12.400;2023-06-05T00:26:19;2.90;;;1.00;;
20381;SDS011;10350;51.280;12.400;2023-06-05T00:28:45;0.73;;;0.70;;
20381;SDS011;10350;51.280;12.400;2023-06-05T00:31:11;0.77;;;0.50;;
20381;SDS011;10350;51.280;12.400;2023-06-05T00:33:38;0.45;;;0.40;;
20381;SDS011;10350;51.280;12.400;2023-06-05T00:36:04;0.73;;;0.47;;
20381;SDS011;10350;51.280;12.400;2023-06-05T00:38:30;0.43;;;0.40;;
20381;SDS011;10350;51.280;12.400;2023-06-05T00:40:56;1.35;;;0.57;;
20381;SDS011;10350;51.280;12.400;2023-06-05T00:43:22;0.70;;;0.50;;
20381;SDS011;10350;51.280;12.400;2023-06-05T00:45:48;1.00;;;0.50;;
20381;SDS011;10350;51.280;12.400;2023-06-05T00:48:16;0.50;;;0.40;;
20381;SDS011;10350;51.280;12.400;2023-06-05T00:50:42;4.25;;;1.00;;
20381;SDS011;10350;51.280;12.400;2023-06-05T00:53:08;1.05;;;0.65;;
20381;SDS011;10350;51.280;12.400;2023-06-05T00:55:34;1.08;;;0.65;;
20381;SDS011;10350;51.280;12.400;2023-06-05T00:58:01;1.05;;;0.60;;
20381;SDS011;10350;51.280;12.400;2023-06-05T01:00:28;1.23;;;0.55;;
20381;SDS011;10350;51.280;12.400;2023-06-05T01:02:54;0.75;;;0.50;;
20381;SDS011;10350;51.280;12.400;2023-06-05T01:05:23;3.58;;;0.60;;
20381;SDS011;10350;51.280;12.400;2023-06-05T01:07:49;0.82;;;0.52;;
20381;SDS011;10350;51.280;12.400;2023-06-05T01:10:15;1.40;;;0.60;;
20381;SDS011;10350;51.280;12.400;2023-06-05T01:15:20;1.65;;;0.50;;
20381;SDS011;10350;51.280;12.400;2023-06-05T01:17:53;1.13;;;0.57;;
20381;SDS011;10350;51.280;12.400;2023-06-05T01:20:20;0.80;;;0.63;;
20381;SDS011;10350;51.280;12.400;2023-06-05T01:22:47;2.85;;;0.68;;
20381;SDS011;10350;51.280;12.400;2023-06-05T01:25:14;1.77;;;0.60;;
20381;SDS011;10350;51.280;12.400;2023-06-05T01:35:45;0.95;;;0.63;;
20381;SDS011;10350;51.280;12.400;2023-06-05T01:38:16;0.20;;;0.20;;
20381;SDS011;10350;51.280;12.400;2023-06-05T01:40:42;0.85;;;0.57;;
20381;SDS011;10350;51.280;12.400;2023-06-05T01:43:09;0.35;;;0.30;;
20381;SDS011;10350;51.280;12.400;2023-06-05T01:45:35;1.10;;;0.82;;
20381;SDS011;10350;51.280;12.400;2023-06-05T01:48:02;0.47;;;0.47;;
20381;SDS011;10350;51.280;12.400;2023-06-05T01:50:28;0.47;;;0.40;;
20381;SDS011;10350;51.280;12.400;2023-06-05T01:52:58;0.77;;;0.60;;
20381;SDS011;10350;51.280;12.400;2023-06-05T01:55:26;2.15;;;0.50;;
20381;SDS011;10350;51.280;12.400;2023-06-05T01:57:53;0.63;;;0.57;;
20381;SDS011;10350;51.280;12.400;2023-06-05T02:00:19;2.25;;;0.70;;
20381;SDS011;10350;51.280;12.400;2023-06-05T02:02:46;7.75;;;0.85;;
20381;SDS011;10350;51.280;12.400;2023-06-05T02:05:12;0.40;;;0.40;;
20381;SDS011;10350;51.280;12.400;2023-06-05T02:07:39;0.82;;;0.60;;
20381;SDS011;10350;51.280;12.400;2023-06-05T02:10:06;0.60;;;0.60;;
20381;SDS011;10350;51.280;12.400;2023-06-05T02:12:33;0.70;;;0.40;;
20381;SDS011;10350;51.280;12.400;2023-06-05T02:14:59;0.82;;;0.60;;
20381;SDS011;10350;51.280;12.400;2023-06-05T02:17:25;0.85;;;0.50;;
20381;SDS011;10350;51.280;12.400;2023-06-05T02:19:51;0.60;;;0.52;;
20381;SDS011;10350;51.280;12.400;2023-06-05T02:22:17;0.85;;;0.77;;
20381;SDS011;10350;51.280;12.400;2023-06-05T02:24:44;1.15;;;0.50;;
20381;SDS011;10350;51.280;12.400;2023-06-05T02:27:10;0.60;;;0.60;;
20381;SDS011;10350;51.280;12.400;2023-06-05T02:29:37;0.70;;;0.57;;
20381;SDS011;10350;51.280;12.400;2023-06-05T02:32:04;1.35;;;0.90;;
20381;SDS011;10350;51.280;12.400;2023-06-05T02:34:31;0.85;;;0.60;;
20381;SDS011;10350;51.280;12.400;2023-06-05T02:36:57;1.23;;;0.50;;
20381;SDS011;10350;51.280;12.400;2023-06-05T02:39:23;1.95;;;0.70;;
20381;SDS011;10350;51.280;12.400;2023-06-05T02:41:50;0.47;;;0.47;;
20381;SDS011;10350;51.280;12.400;2023-06-05T02:44:16;0.50;;;0.50;;
20381;SDS011;10350;51.280;12.400;2023-06-05T02:46:42;0.60;;;0.50;;
20381;SDS011;10350;51.280;12.400;2023-06-05T02:49:08;0.82;;;0.45;;
20381;SDS011;10350;51.280;12.400;2023-06-05T02:51:34;0.75;;;0.40;;
20381;SDS011;10350;51.280;12.400;2023-06-05T02:54:00;2.67;;;0.68;;
20381;SDS011;10350;51.280;12.400;2023-06-05T02:56:26;1.38;;;0.40;;
20381;SDS011;10350;51.280;12.400;2023-06-05T02:58:52;1.63;;;0.63;;
20381;SDS011;10350;51.280;12.400;2023-06-05T03:01:19;0.68;;;0.65;;
20381;SDS011;10350;51.280;12.400;2023-06-05T03:03:46;1.73;;;0.85;;
20381;SDS011;10350;51.280;12.400;2023-06-05T03:06:13;1.02;;;0.90;;
20381;SDS011;10350;51.280;12.400;2023-06-05T03:08:42;1.38;;;0.60;;
20381;SDS011;10350;51.280;12.400;2023-06-05T03:11:08;1.10;;;0.60;;
20381;SDS011;10350;51.280;12.400;2023-06-05T03:13:34;0.30;;;0.30;;
20381;SDS011;10350;51.280;12.400;2023-06-05T03:16:00;0.95;;;0.52;;
20381;SDS011;10350;51.280;12.400;2023-06-05T03:18:29;1.02;;;0.50;;
20381;SDS011;10350;51.280;12.400;2023-06-05T03:20:56;1.40;;;1.02;;
20381;SDS011;10350;51.280;12.400;2023-06-05T03:23:25;0.80;;;0.50;;
20381;SDS011;10350;51.280;12.400;2023-06-05T03:25:55;0.85;;;0.60;;
20381;SDS011;10350;51.280;12.400;2023-06-05T03:28:22;0.75;;;0.70;;
20381;SDS011;10350;51.280;12.400;2023-06-05T03:30:48;0.65;;;0.50;;
20381;SDS011;10350;51.280;12.400;2023-06-05T03:33:14;1.05;;;0.77;;
20381;SDS011;10350;51.280;12.400;2023-06-05T03:35:42;1.02;;;0.60;;
20381;SDS011;10350;51.280;12.400;2023-06-05T03:38:10;1.70;;;0.50;;
20381;SDS011;10350;51.280;12.400;2023-06-05T03:40:36;0.77;;;0.40;;
20381;SDS011;10350;51.280;12.400;2023-06-05T03:43:04;2.35;;;0.82;;
20381;SDS011;10350;51.280;12.400;2023-06-05T03:45:30;1.10;;;0.50;;
20381;SDS011;10350;51.280;12.400;2023-06-05T03:47:56;0.63;;;0.50;;
20381;SDS011;10350;51.280;12.400;2023-06-05T03:50:24;0.55;;;0.32;;
20381;SDS011;10350;51.280;12.400;2023-06-05T03:52:50;0.80;;;0.60;;
20381;SDS011;10350;51.280;12.400;2023-06-05T03:55:20;0.57;;;0.52;;
20381;SDS011;10350;51.280;12.400;2023-06-05T03:57:47;1.13;;;0.70;;
20381;SDS011;10350;51.280;12.400;2023-06-05T04:00:13;0.60;;;0.60;;
20381;SDS011;10350;51.280;12.400;2023-06-05T04:02:40;1.20;;;0.70;;
20381;SDS011;10350;51.280;12.400;2023-06-05T04:05:06;0.88;;;0.55;;
20381;SDS011;10350;51.280;12.400;2023-06-05T04:07:37;0.73;;;0.73;;
20381;SDS011;10350;51.280;12.400;2023-06-05T04:10:03;0.93;;;0.40;;
20381;SDS011;10350;51.280;12.400;2023-06-05T04:12:29;0.93;;;0.80;;
20381;SDS011;10350;51.280;12.400;2023-06-05T04:14:55;0.38;;;0.38;;
20381;SDS011;10350;51.280;12.400;2023-06-05T04:17:23;1.80;;;0.60;;
20381;SDS011;10350;51.280;12.400;2023-06-05T04:19:49;1.65;;;0.60;;
20381;SDS011;10350;51.280;12.400;2023-06-05T04:22:15;1.38;;;0.50;;
20381;SDS011;10350;51.280;12.400;2023-06-05T04:24:41;1.75;;;0.40;;
20381;SDS011;10350;51.280;12.400;2023-06-05T04:27:07;0.93;;;0.65;;
20381;SDS011;10350;51.280;12.400;2023-06-05T04:29:33;1.00;;;0.70;;
20381;SDS011;10350;51.280;12.400;2023-06-05T04:31:59;0.32;;;0.32;;
20381;SDS011;10350;51.280;12.400;2023-06-05T04:34:25;0.60;;;0.60;;
20381;SDS011;10350;51.280;12.400;2023-06-05T04:36:51;0.70;;;0.50;;
20381;SDS011;10350;51.280;12.400;2023-06-05T04:39:17;0.47;;;0.47;;
20381;SDS011;10350;51.280;12.400;2023-06-05T04:41:44;2.17;;;0.63;;
20381;SDS011;10350;51.280;12.400;2023-06-05T04:44:11;0.88;;;0.52;;
20381;SDS011;10350;51.280;12.400;2023-06-05T04:46:48;0.80;;;0.60;;
20381;SDS011;10350;51.280;12.400;2023-06-05T04:49:34;2.10;;;0.77;;
20381;SDS011;10350;51.280;12.400;2023-06-05T04:52:00;0.73;;;0.50;;
20381;SDS011;10350;51.280;12.400;2023-06-05T04:54:26;1.23;;;0.93;;
20381;SDS011;10350;51.280;12.400;2023-06-05T04:56:52;2.13;;;0.80;;
20381;SDS011;10350;51.280;12.400;2023-06-05T04:59:18;0.70;;;0.50;;
20381;SDS011;10350;51.280;12.400;2023-06-05T05:01:44;1.27;;;0.73;;
20381;SDS011;10350;51.280;12.400;2023-06-05T05:04:10;0.60;;;0.60;;
20381;SDS011;10350;51.280;12.400;2023-06-05T05:06:37;1.27;;;0.80;;
20381;SDS011;10350;51.280;12.400;2023-06-05T05:09:04;0.77;;;0.77;;
20381;SDS011;10350;51.280;12.400;2023-06-05T05:11:30;1.17;;;0.90;;
20381;SDS011;10350;51.280;12.400;2023-06-05T05:13:56;0.93;;;0.60;;
20381;SDS011;10350;51.280;12.400;2023-06-05T05:16:22;0.73;;;0.57;;
20381;SDS011;10350;51.280;12.400;2023-06-05T05:18:50;3.75;;;1.00;;
20381;SDS011;10350;51.280;12.400;2023-06-05T05:21:16;2.30;;;0.73;;
20381;SDS011;10350;51.280;12.400;2023-06-05T05:23:43;1.52;;;0.93;;
20381;SDS011;10350;51.280;12.400;2023-06-05T05:26:09;1.58;;;1.13;;
20381;SDS011;10350;51.280;12.400;2023-06-05T05:28:35;1.65;;;0.90;;
20381;SDS011;10350;51.280;12.400;2023-06-05T05:31:01;0.98;;;0.77;;
20381;SDS011;10350;51.280;12.400;2023-06-05T05:33:28;1.27;;;0.95;;
20381;SDS011;10350;51.280;12.400;2023-06-05T05:35:54;1.15;;;0.90;;
20381;SDS011;10350;51.280;12.400;2023-06-05T05:38:21;1.83;;;1.15;;
20381;SDS011;10350;51.280;12.400;2023-06-05T05:40:47;1.20;;;0.80;;
20381;SDS011;10350;51.280;12.400;2023-06-05T05:43:13;0.73;;;0.70;;
20381;SDS011;10350;51.280;12.400;2023-06-05T05:45:39;2.00;;;1.13;;
20381;SDS011;10350;51.280;12.400;2023-06-05T05:50:33;2.80;;;0.85;;
20381;SDS011;10350;51.280;12.400;2023-06-05T05:52:59;0.98;;;0.88;;
20381;SDS011;10350;51.280;12.400;2023-06-05T05:55:25;1.35;;;0.68;;
20381;SDS011;10350;51.280;12.400;2023-06-05T05:57:51;2.30;;;1.20;;
20381;SDS011;10350;51.280;12.400;2023-06-05T06:00:17;2.42;;;1.00;;
20381;SDS011;10350;51.280;12.400;2023-06-05T06:02:43;1.25;;;0.90;;
20381;SDS011;10350;51.280;12.400;2023-06-05T06:05:09;1.98;;;1.13;;
20381;SDS011;10350;51.280;12.400;2023-06-05T06:07:37;1.17;;;0.77;;
20381;SDS011;10350;51.280;12.400;2023-06-05T06:10:05;1.25;;;1.15;;
20381;SDS011;10350;51.280;12.400;2023-06-05T06:12:32;4.28;;;1.05;;
20381;SDS011;10350;51.280;12.400;2023-06-05T06:14:58;1.38;;;1.00;;
20381;SDS011;10350;51.280;12.400;2023-06-05T06:17:24;1.20;;;0.90;;
20381;SDS011;10350;51.280;12.400;2023-06-05T06:19:52;1.20;;;0.80;;
20381;SDS011;10350;51.280;12.400;2023-06-05T06:22:18;1.33;;;0.70;;
20381;SDS011;10350;51.280;12.400;2023-06-05T06:24:44;2.72;;;1.00;;
20381;SDS011;10350;51.280;12.400;2023-06-05T06:27:10;1.10;;;0.95;;
20381;SDS011;10350;51.280;12.400;2023-06-05T06:29:45;1.13;;;1.03;;
20381;SDS011;10350;51.280;12.400;2023-06-05T06:32:11;1.63;;;1.00;;
20381;SDS011;10350;51.280;12.400;2023-06-05T06:34:37;1.00;;;0.93;;
20381;SDS011;10350;51.280;12.400;2023-06-05T06:37:03;1.30;;;0.95;;
20381;SDS011;10350;51.280;12.400;2023-06-05T06:39:30;2.92;;;1.30;;
20381;SDS011;10350;51.280;12.400;2023-06-05T06:41:56;2.03;;;1.20;;
20381;SDS011;10350;51.280;12.400;2023-06-05T06:44:22;3.20;;;1.00;;
20381;SDS011;10350;51.280;12.400;2023-06-05T06:46:48;2.85;;;1.20;;
20381;SDS011;10350;51.280;12.400;2023-06-05T06:49:14;1.20;;;1.05;;
20381;SDS011;10350;51.280;12.400;2023-06-05T06:51:40;1.30;;;0.90;;
20381;SDS011;10350;51.280;12.400;2023-06-05T06:54:06;3.10;;;1.17;;
20381;SDS011;10350;51.280;12.400;2023-06-05T06:56:32;0.63;;;0.60;;
20381;SDS011;10350;51.280;12.400;2023-06-05T06:58:58;1.60;;;1.10;;
20381;SDS011;10350;51.280;12.400;2023-06-05T07:01:24;2.90;;;1.15;;
20381;SDS011;10350;51.280;12.400;2023-06-05T07:03:51;0.80;;;0.80;;
20381;SDS011;10350;51.280;12.400;2023-06-05T07:06:17;1.00;;;0.80;;
20381;SDS011;10350;51.280;12.400;2023-06-05T07:08:46;1.67;;;0.85;;
20381;SDS011;10350;51.280;12.400;2023-06-05T07:11:12;0.75;;;0.75;;
20381;SDS011;10350;51.280;12.400;2023-06-05T07:13:38;1.83;;;0.90;;
20381;SDS011;10350;51.280;12.400;2023-06-05T07:16:04;1.27;;;0.70;;
20381;SDS011;10350;51.280;12.400;2023-06-05T07:18:30;2.00;;;0.70;;
20381;SDS011;10350;51.280;12.400;2023-06-05T07:20:56;0.90;;;0.65;;
20381;SDS011;10350;51.280;12.400;2023-06-05T07:23:22;1.42;;;0.98;;
20381;SDS011;10350;51.280;12.400;2023-06-05T07:25:48;1.63;;;0.85;;
20381;SDS011;10350;51.280;12.400;2023-06-05T07:28:16;0.80;;;0.65;;
20381;SDS011;10350;51.280;12.400;2023-06-05T07:30:42;1.45;;;0.90;;
20381;SDS011;10350;51.280;12.400;2023-06-05T07:33:08;0.70;;;0.70;;
20381;SDS011;10350;51.280;12.400;2023-06-05T07:35:34;0.98;;;0.90;;
20381;SDS011;10350;51.280;12.400;2023-06-05T07:38:00;3.15;;;1.48;;
20381;SDS011;10350;51.280;12.400;2023-06-05T07:40:26;0.70;;;0.70;;
20381;SDS011;10350;51.280;12.400;2023-06-05T07:42:52;2.15;;;0.98;;
20381;SDS011;10350;51.280;12.400;2023-06-05T07:45:18;2.80;;;0.88;;
20381;SDS011;10350;51.280;12.400;2023-06-05T07:47:44;1.00;;;0.80;;
20381;SDS011;10350;51.280;12.400;2023-06-05T07:50:10;1.42;;;1.08;;
20381;SDS011;10350;51.280;12.400;2023-06-05T07:52:36;4.43;;;1.20;;
20381;SDS011;10350;51.280;12.400;2023-06-05T07:55:02;3.08;;;1.10;;
20381;SDS011;10350;51.280;12.400;2023-06-05T07:57:29;0.70;;;0.70;;
20381;SDS011;10350;51.280;12.400;2023-06-05T07:59:55;1.65;;;0.82;;
20381;SDS011;10350;51.280;12.400;2023-06-05T08:02:21;2.13;;;1.00;;
20381;SDS011;10350;51.280;12.400;2023-06-05T08:04:48;1.38;;;0.88;;
20381;SDS011;10350;51.280;12.400;2023-06-05T08:07:14;0.80;;;0.80;;
20381;SDS011;10350;51.280;12.400;2023-06-05T08:09:41;1.13;;;0.82;;
20381;SDS011;10350;51.280;12.400;2023-06-05T08:12:07;3.15;;;1.30;;
20381;SDS011;10350;51.280;12.400;2023-06-05T08:14:33;1.25;;;0.85;;
20381;SDS011;10350;51.280;12.400;2023-06-05T08:17:00;1.42;;;0.70;;
20381;SDS011;10350;51.280;12.400;2023-06-05T08:19:26;1.30;;;0.88;;
20381;SDS011;10350;51.280;12.400;2023-06-05T08:21:52;1.85;;;1.08;;
20381;SDS011;10350;51.280;12.400;2023-06-05T08:24:22;1.08;;;0.85;;
20381;SDS011;10350;51.280;12.400;2023-06-05T08:26:48;1.42;;;0.95;;
20381;SDS011;10350;51.280;12.400;2023-06-05T08:29:14;1.20;;;0.88;;
20381;SDS011;10350;51.280;12.400;2023-06-05T08:31:40;0.80;;;0.80;;
20381;SDS011;10350;51.280;12.400;2023-06-05T08:34:06;0.80;;;0.80;;
20381;SDS011;10350;51.280;12.400;2023-06-05T08:36:32;1.02;;;0.80;;
20381;SDS011;10350;51.280;12.400;2023-06-05T08:39:00;1.48;;;1.10;;
20381;SDS011;10350;51.280;12.400;2023-06-05T08:41:28;1.02;;;0.90;;
20381;SDS011;10350;51.280;12.400;2023-06-05T08:43:55;1.17;;;0.93;;
20381;SDS011;10350;51.280;12.400;2023-06-05T08:46:21;2.08;;;1.05;;
20381;SDS011;10350;51.280;12.400;2023-06-05T08:48:48;1.20;;;1.10;;
20381;SDS011;10350;51.280;12.400;2023-06-05T08:51:18;3.05;;;0.90;;
20381;SDS011;10350;51.280;12.400;2023-06-05T08:53:57;1.08;;;1.00;;
20381;SDS011;10350;51.280;12.400;2023-06-05T08:56:29;1.10;;;1.00;;
20381;SDS011;10350;51.280;12.400;2023-06-05T08:58:56;0.80;;;0.80;;
20381;SDS011;10350;51.280;12.400;2023-06-05T09:01:22;1.95;;;0.90;;
20381;SDS011;10350;51.280;12.400;2023-06-05T09:03:49;1.58;;;0.90;;
20381;SDS011;10350;51.280;12.400;2023-06-05T09:06:16;1.10;;;1.00;;
20381;SDS011;10350;51.280;12.400;2023-06-05T09:08:42;1.85;;;1.00;;
20381;SDS011;10350;51.280;12.400;2023-06-05T09:11:18;3.60;;;1.48;;
20381;SDS011;10350;51.280;12.400;2023-06-05T09:13:45;1.15;;;1.00;;
20381;SDS011;10350;51.280;12.400;2023-06-05T09:16:11;1.17;;;0.80;;
20381;SDS011;10350;51.280;12.400;2023-06-05T09:18:50;0.73;;;0.73;;
20381;SDS011;10350;51.280;12.400;2023-06-05T09:21:17;1.02;;;0.90;;
20381;SDS011;10350;51.280;12.400;2023-06-05T09:23:43;1.42;;;0.85;;
20381;SDS011;10350;51.280;12.400;2023-06-05T09:26:10;0.80;;;0.80;;
20381;SDS011;10350;51.280;12.400;2023-06-05T09:28:54;0.77;;;0.73;;
20381;SDS011;10350;51.280;12.400;2023-06-05T09:31:22;1.30;;;0.90;;
20381;SDS011;10350;51.280;12.400;2023-06-05T09:33:55;0.88;;;0.77;;
20381;SDS011;10350;51.280;12.400;2023-06-05T09:36:21;1.02;;;0.70;;
20381;SDS011;10350;51.280;12.400;2023-06-05T09:38:47;2.28;;;1.08;;
20381;SDS011;10350;51.280;12.400;2023-06-05T09:41:15;1.00;;;0.80;;
20381;SDS011;10350;51.280;12.400;2023-06-05T09:43:43;2.95;;;0.80;;
20381;SDS011;10350;51.280;12.400;2023-06-05T09:46:14;0.70;;;0.70;;
20381;SDS011;10350;51.280;12.400;2023-06-05T09:48:41;1.25;;;0.98;;
20381;SDS011;10350;51.280;12.400;2023-06-05T09:51:13;4.10;;;0.98;;
20381;SDS011;10350;51.280;12.400;2023-06-05T09:53:45;0.85;;;0.85;;
20381;SDS011;10350;51.280;12.400;2023-06-05T09:56:12;11.15;;;1.20;;
20381;SDS011;10350;51.280;12.400;2023-06-05T09:58:40;1.75;;;1.20;;
20381;SDS011;10350;51.280;12.400;2023-06-05T10:01:08;0.85;;;0.80;;
20381;SDS011;10350;51.280;12.400;2023-06-05T10:03:35;1.15;;;0.93;;
20381;SDS011;10350;51.280;12.400;2023-06-05T10:06:03;1.10;;;0.80;;
20381;SDS011;10350;51.280;12.400;2023-06-05T10:08:30;1.13;;;1.00;;
20381;SDS011;10350;51.280;12.400;2023-06-05T10:10:56;0.80;;;0.60;;
20381;SDS011;10350;51.280;12.400;2023-06-05T10:13:22;1.05;;;1.00;;
20381;SDS011;10350;51.280;12.400;2023-06-05T10:15:49;1.15;;;1.02;;
20381;SDS011;10350;51.280;12.400;2023-06-05T10:18:16;1.10;;;0.95;;
20381;SDS011;10350;51.280;12.400;2023-06-05T10:20:46;1.50;;;1.00;;
20381;SDS011;10350;51.280;12.400;2023-06-05T10:23:14;1.38;;;0.95;;
20381;SDS011;10350;51.280;12.400;2023-06-05T10:25:41;1.15;;;0.90;;
20381;SDS011;10350;51.280;12.400;2023-06-05T10:35:50;1.13;;;1.00;;
20381;SDS011;10350;51.280;12.400;2023-06-05T10:46:01;1.10;;;1.00;;
20381;SDS011;10350;51.280;12.400;2023-06-05T10:53:58;0.90;;;0.90;;
20381;SDS011;10350;51.280;12.400;2023-06-05T10:59:11;1.35;;;1.00;;
20381;SDS011;10350;51.280;12.400;2023-06-05T11:01:38;1.60;;;1.20;;
20381;SDS011;10350;51.280;12.400;2023-06-05T11:04:04;1.73;;;1.48;;
20381;SDS011;10350;51.280;12.400;2023-06-05T11:06:30;0.82;;;0.82;;
20381;SDS011;10350;51.280;12.400;2023-06-05T11:09:06;1.25;;;1.10;;
20381;SDS011;10350;51.280;12.400;2023-06-05T11:14:18;1.50;;;1.20;;
20381;SDS011;10350;51.280;12.400;2023-06-05T11:16:44;0.82;;;0.75;;
20381;SDS011;10350;51.280;12.400;2023-06-05T11:19:53;1.15;;;1.05;;
20381;SDS011;10350;51.280;12.400;2023-06-05T11:22:09;1.48;;;1.02;;
20381;SDS011;10350;51.280;12.400;2023-06-05T11:24:38;0.93;;;0.90;;
20381;SDS011;10350;51.280;12.400;2023-06-05T11:27:05;1.55;;;1.00;;
20381;SDS011;10350;51.280;12.400;2023-06-05T11:29:34;3.00;;;1.13;;
20381;SDS011;10350;51.280;12.400;2023-06-05T11:32:00;12.40;;;1.73;;
20381;SDS011;10350;51.280;12.400;2023-06-05T11:34:26;2.00;;;1.30;;
20381;SDS011;10350;51.280;12.400;2023-06-05T11:36:54;1.30;;;1.20;;
20381;SDS011;10350;51.280;12.400;2023-06-05T11:39:20;1.27;;;0.95;;
20381;SDS011;10350;51.280;12.400;2023-06-05T11:41:47;1.23;;;1.13;;
20381;SDS011;10350;51.280;12.400;2023-06-05T11:44:14;3.47;;;1.50;;
20381;SDS011;10350;51.280;12.400;2023-06-05T11:46:40;1.45;;;1.25;;
20381;SDS011;10350;51.280;12.400;2023-06-05T11:49:09;1.43;;;1.33;;
20381;SDS011;10350;51.280;12.400;2023-06-05T11:51:35;1.73;;;1.30;;
20381;SDS011;10350;51.280;12.400;2023-06-05T11:54:04;2.17;;;1.17;;
20381;SDS011;10350;51.280;12.400;2023-06-05T11:58:58;1.02;;;1.00;;
20381;SDS011;10350;51.280;12.400;2023-06-05T12:01:24;1.02;;;1.00;;
20381;SDS011;10350;51.280;12.400;2023-06-05T12:04:07;0.98;;;0.95;;
20381;SDS011;10350;51.280;12.400;2023-06-05T12:06:44;1.85;;;1.20;;
20381;SDS011;10350;51.280;12.400;2023-06-05T12:09:13;1.35;;;1.13;;
20381;SDS011;10350;51.280;12.400;2023-06-05T12:11:41;1.33;;;1.23;;
20381;SDS011;10350;51.280;12.400;2023-06-05T12:14:09;2.35;;;1.30;;
20381;SDS011;10350;51.280;12.400;2023-06-05T12:16:41;1.80;;;1.30;;
20381;SDS011;10350;51.280;12.400;2023-06-05T12:19:16;1.63;;;1.38;;
20381;SDS011;10350;51.280;12.400;2023-06-05T12:21:43;1.95;;;1.20;;
20381;SDS011;10350;51.280;12.400;2023-06-05T12:24:10;2.47;;;0.90;;
20381;SDS011;10350;51.280;12.400;2023-06-05T12:26:56;1.33;;;1.20;;
20381;SDS011;10350;51.280;12.400;2023-06-05T12:29:24;2.20;;;1.47;;
20381;SDS011;10350;51.280;12.400;2023-06-05T12:31:50;1.90;;;1.60;;
20381;SDS011;10350;51.280;12.400;2023-06-05T12:34:16;1.55;;;1.45;;
20381;SDS011;10350;51.280;12.400;2023-06-05T12:36:43;2.20;;;1.60;;
20381;SDS011;10350;51.280;12.400;2023-06-05T12:39:10;1.98;;;1.63;;
20381;SDS011;10350;51.280;12.400;2023-06-05T12:41:37;1.00;;;0.98;;
20381;SDS011;10350;51.280;12.400;2023-06-05T12:44:04;1.47;;;1.37;;
20381;SDS011;10350;51.280;12.400;2023-06-05T12:46:31;2.50;;;1.10;;
20381;SDS011;10350;51.280;12.400;2023-06-05T12:49:01;1.02;;;1.00;;
20381;SDS011;10350;51.280;12.400;2023-06-05T12:51:27;1.90;;;1.15;;
20381;SDS011;10350;51.280;12.400;2023-06-05T12:53:56;1.33;;;1.23;;
20381;SDS011;10350;51.280;12.400;2023-06-05T12:56:23;1.10;;;1.00;;
20381;SDS011;10350;51.280;12.400;2023-06-05T12:58:54;1.27;;;1.15;;
20381;SDS011;10350;51.280;12.400;2023-06-05T13:01:20;1.23;;;1.08;;
20381;SDS011;10350;51.280;12.400;2023-06-05T13:03:47;1.63;;;1.10;;
20381;SDS011;10350;51.280;12.400;2023-06-05T13:06:13;1.23;;;1.00;;
20381;SDS011;10350;51.280;12.400;2023-06-05T13:08:39;3.70;;;1.10;;
20381;SDS011;10350;51.280;12.400;2023-06-05T13:11:05;1.70;;;1.13;;
20381;SDS011;10350;51.280;12.400;2023-06-05T13:13:31;1.77;;;1.17;;
20381;SDS011;10350;51.280;12.400;2023-06-05T13:15:58;1.20;;;1.10;;
20381;SDS011;10350;51.280;12.400;2023-06-05T13:18:25;1.67;;;1.20;;
20381;SDS011;10350;51.280;12.400;2023-06-05T13:20:51;2.35;;;1.00;;
20381;SDS011;10350;51.280;12.400;2023-06-05T13:23:17;1.80;;;1.25;;
20381;SDS011;10350;51.280;12.400;2023-06-05T13:25:43;1.58;;;1.02;;
20381;SDS011;10350;51.280;12.400;2023-06-05T13:28:09;2.03;;;0.98;;
20381;SDS011;10350;51.280;12.400;2023-06-05T13:30:35;1.15;;;1.05;;
20381;SDS011;10350;51.280;12.400;2023-06-05T13:33:00;3.08;;;1.10;;
20381;SDS011;10350;51.280;12.400;2023-06-05T13:35:27;1.90;;;1.33;;
20381;SDS011;10350;51.280;12.400;2023-06-05T13:37:52;1.77;;;1.15;;
20381;SDS011;10350;51.280;12.400;2023-06-05T13:40:19;1.85;;;1.20;;
20381;SDS011;10350;51.280;12.400;2023-06-05T13:42:45;1.20;;;1.10;;
20381;SDS011;10350;51.280;12.400;2023-06-05T13:45:11;1.88;;;1.23;;
20381;SDS011;10350;51.280;12.400;2023-06-05T13:47:37;1.33;;;1.00;;
20381;SDS011;10350;51.280;12.400;2023-06-05T13:50:03;1.13;;;0.93;;
20381;SDS011;10350;51.280;12.400;2023-06-05T13:52:29;1.50;;;1.20;;
20381;SDS011;10350;51.280;12.400;2023-06-05T13:54:55;4.45;;;1.20;;
20381;SDS011;10350;51.280;12.400;2023-06-05T13:57:21;2.85;;;1.60;;
20381;SDS011;10350;51.280;12.400;2023-06-05T13:59:47;1.40;;;1.20;;
20381;SDS011;10350;51.280;12.400;2023-06-05T14:02:13;1.40;;;1.27;;
20381;SDS011;10350;51.280;12.400;2023-06-05T14:04:40;2.93;;;1.30;;
20381;SDS011;10350;51.280;12.400;2023-06-05T14:07:06;1.00;;;0.98;;
20381;SDS011;10350;51.280;12.400;2023-06-05T14:09:32;1.15;;;1.05;;
20381;SDS011;10350;51.280;12.400;2023-06-05T14:11:59;2.10;;;1.17;;
20381;SDS011;10350;51.280;12.400;2023-06-05T14:14:25;1.73;;;1.08;;
20381;SDS011;10350;51.280;12.400;2023-06-05T14:16:51;1.27;;;1.13;;
20381;SDS011;10350;51.280;12.400;2023-06-05T14:19:17;1.50;;;1.30;;
20381;SDS011;10350;51.280;12.400;2023-06-05T14:21:43;3.60;;;1.27;;
20381;SDS011;10350;51.280;12.400;2023-06-05T14:24:10;2.92;;;1.45;;
20381;SDS011;10350;51.280;12.400;2023-06-05T14:26:36;1.00;;;0.90;;
20381;SDS011;10350;51.280;12.400;2023-06-05T14:29:02;1.42;;;1.20;;
20381;SDS011;10350;51.280;12.400;2023-06-05T14:31:29;1.30;;;1.20;;
20381;SDS011;10350;51.280;12.400;2023-06-05T14:33:55;1.10;;;0.93;;
20381;SDS011;10350;51.280;12.400;2023-06-05T14:36:21;1.42;;;1.27;;
20381;SDS011;10350;51.280;12.400;2023-06-05T14:38:47;1.33;;;1.23;;
20381;SDS011;10350;51.280;12.400;2023-06-05T14:41:13;1.30;;;1.23;;
20381;SDS011;10350;51.280;12.400;2023-06-05T14:43:39;1.40;;;1.30;;
20381;SDS011;10350;51.280;12.400;2023-06-05T14:46:05;1.85;;;1.45;;
20381;SDS011;10350;51.280;12.400;2023-06-05T14:48:31;2.25;;;1.60;;
20381;SDS011;10350;51.280;12.400;2023-06-05T14:50:57;1.13;;;1.02;;
20381;SDS011;10350;51.280;12.400;2023-06-05T14:53:23;2.42;;;1.45;;
20381;SDS011;10350;51.280;12.400;2023-06-05T14:55:49;3.17;;;1.38;;
20381;SDS011;10350;51.280;12.400;2023-06-05T14:58:15;1.33;;;1.23;;
20381;SDS011;10350;51.280;12.400;2023-06-05T15:00:41;1.58;;;1.48;;
20381;SDS011;10350;51.280;12.400;2023-06-05T15:03:07;1.58;;;1.38;;
20381;SDS011;10350;51.280;12.400;2023-06-05T15:05:33;1.58;;;1.35;;
20381;SDS011;10350;51.280;12.400;2023-06-05T15:08:00;1.35;;;1.25;;
20381;SDS011;10350;51.280;12.400;2023-06-05T15:10:25;1.42;;;1.30;;
20381;SDS011;10350;51.280;12.400;2023-06-05T15:12:52;1.80;;;1.13;;
20381;SDS011;10350;51.280;12.400;2023-06-05T15:15:22;4.53;;;1.00;;